Martinstown, Missouri
Current Conditions -  °F | °C
As of 5:50 PM on Wednesday 26 Nov 2014 (Local Time) from KTVK Reporting Station
Light Snow Light Snow  
Wind Chill: 22°   Ceiling: 200
Heat Index: 30°   Visibility: 5mi
Dew Point: 30°   Wind: 9mph
Humidity: 100%   Direction: 360°N
Pressure: 30.12"   Gusts: NA
Location:  40.4961°N, 92.9907°W
Report Text: KTVK 262350Z AUTO 36008KT 5SM -SN OVC002 M01/M01 A3012 RMK AO2
Loading
Personal Weather Stations






























Interactive Weather Map New forecast layout! Learn more

10-Day Weather Forecast

Advertisements
Track Severe Weather on mobile